Accueil
METAR-TAF:

METAR-TAF

Aéroports :

Aéroport Agen-La Garenne

Agen, France

latitude: 44-11N, longitude: 000-36E, altitude: 61 m

Observation

Le bulletin a été fait il y a 19 minutes, à 06:00 UTC
Vent 5 kt de est/sud-est
Température -2°C
Humidité 93%
Pression 1028 hPa
Visibilité: 7000 m

METAR: LFBA 240600Z AUTO 11005KT 7000 NSC M02/M03 Q1028 TEMPO 3000 BR

Heure: 07:19 (06:19 UTC)

Prévision

Le bulletin a été fait il y a 1 heure et 19 minutes, à 05:00 UTC
Prévision valable du 24 à 06 UTC au 24 à 15 UTC
Vent 5 kt de est/sud-est
Visibilité: 6000 m
Probabilité 40% :
Temporairement
du 24 à 06 UTC au 24 à 08 UTC
Visibilité: 3000 m
brume
A partir de 24 à 0900 UTC
Vent 6 kt de est/sud-est
Visibilité 10 km ou plus
pas de nuages en-dessous de 1500 mètres et pas de cumulonimbus.

TAF: LFBA 240500Z 2406/2415 12005KT 6000 NSC PROB40 TEMPO 2406/2408 3000 BR NSC FM240900 12006KT CAVOK

Observations et prévisions météorologiques de plus de 4000 aéroports (messages METAR et TAF).

Les stations disponibles sont représentées par des disques jaunes et rouges sur la carte.

Passer la souris dessus pour voir le nom de la station.

Cliquer dessus pour voir les observations et prévisions météorologiques.

Pour changer de carte: cliquez sur les boutons verts avec une croix noire pour zoomer, sur le bouton vert avec un tiret pour effectuer un zoom arrière, ou sur les flèches vertes pour les cartes adjacentes.


METAR-TAF: